sensor_id;sensor_type;location;lat;lon;timestamp;P1;durP1;ratioP1;P2;durP2;ratioP2
2972;SDS011;1496;51.404;7.232;2022-07-21T00:00:01;17.03;;;14.10;;
2972;SDS011;1496;51.404;7.232;2022-07-21T00:02:31;16.07;;;13.00;;
2972;SDS011;1496;51.404;7.232;2022-07-21T00:04:57;18.47;;;13.80;;
2972;SDS011;1496;51.404;7.232;2022-07-21T00:07:23;15.67;;;13.70;;
2972;SDS011;1496;51.404;7.232;2022-07-21T00:09:48;15.90;;;13.27;;
2972;SDS011;1496;51.404;7.232;2022-07-21T00:12:14;14.70;;;12.83;;
2972;SDS011;1496;51.404;7.232;2022-07-21T00:14:40;13.53;;;11.77;;
2972;SDS011;1496;51.404;7.232;2022-07-21T00:17:05;16.73;;;11.57;;
2972;SDS011;1496;51.404;7.232;2022-07-21T00:19:31;11.67;;;9.50;;
2972;SDS011;1496;51.404;7.232;2022-07-21T00:21:57;11.57;;;10.00;;
2972;SDS011;1496;51.404;7.232;2022-07-21T00:24:22;16.77;;;11.00;;
2972;SDS011;1496;51.404;7.232;2022-07-21T00:26:48;12.40;;;9.00;;
2972;SDS011;1496;51.404;7.232;2022-07-21T00:29:13;9.60;;;8.60;;
2972;SDS011;1496;51.404;7.232;2022-07-21T00:31:39;10.87;;;9.70;;
2972;SDS011;1496;51.404;7.232;2022-07-21T00:34:05;11.23;;;9.20;;
2972;SDS011;1496;51.404;7.232;2022-07-21T00:36:30;12.07;;;9.97;;
2972;SDS011;1496;51.404;7.232;2022-07-21T00:38:56;11.80;;;9.43;;
2972;SDS011;1496;51.404;7.232;2022-07-21T00:41:25;12.73;;;9.90;;
2972;SDS011;1496;51.404;7.232;2022-07-21T00:43:51;12.00;;;9.10;;
2972;SDS011;1496;51.404;7.232;2022-07-21T00:46:19;11.63;;;9.53;;
2972;SDS011;1496;51.404;7.232;2022-07-21T00:48:45;10.87;;;9.87;;
2972;SDS011;1496;51.404;7.232;2022-07-21T00:51:11;12.07;;;9.60;;
2972;SDS011;1496;51.404;7.232;2022-07-21T00:53:37;10.43;;;9.43;;
2972;SDS011;1496;51.404;7.232;2022-07-21T00:56:02;11.50;;;9.63;;
2972;SDS011;1496;51.404;7.232;2022-07-21T00:58:29;10.70;;;8.90;;
2972;SDS011;1496;51.404;7.232;2022-07-21T01:00:55;11.97;;;10.73;;
2972;SDS011;1496;51.404;7.232;2022-07-21T01:03:20;13.37;;;10.33;;
2972;SDS011;1496;51.404;7.232;2022-07-21T01:05:46;14.80;;;9.23;;
2972;SDS011;1496;51.404;7.232;2022-07-21T01:08:12;11.97;;;9.33;;
2972;SDS011;1496;51.404;7.232;2022-07-21T01:10:39;11.50;;;9.57;;
2972;SDS011;1496;51.404;7.232;2022-07-21T01:13:05;23.60;;;9.80;;
2972;SDS011;1496;51.404;7.232;2022-07-21T01:15:31;11.57;;;9.57;;
2972;SDS011;1496;51.404;7.232;2022-07-21T01:17:57;11.73;;;10.67;;
2972;SDS011;1496;51.404;7.232;2022-07-21T01:20:23;11.43;;;10.00;;
2972;SDS011;1496;51.404;7.232;2022-07-21T01:22:51;12.50;;;10.17;;
2972;SDS011;1496;51.404;7.232;2022-07-21T01:25:18;15.00;;;10.40;;
2972;SDS011;1496;51.404;7.232;2022-07-21T01:27:45;11.73;;;10.53;;
2972;SDS011;1496;51.404;7.232;2022-07-21T01:30:11;11.43;;;10.07;;
2972;SDS011;1496;51.404;7.232;2022-07-21T01:32:38;12.43;;;10.10;;
2972;SDS011;1496;51.404;7.232;2022-07-21T01:35:09;14.47;;;10.77;;
2972;SDS011;1496;51.404;7.232;2022-07-21T01:37:39;14.73;;;11.07;;
2972;SDS011;1496;51.404;7.232;2022-07-21T01:40:08;12.87;;;11.10;;
2972;SDS011;1496;51.404;7.232;2022-07-21T01:42:53;11.23;;;9.70;;
2972;SDS011;1496;51.404;7.232;2022-07-21T01:45:19;11.97;;;9.57;;
2972;SDS011;1496;51.404;7.232;2022-07-21T01:47:45;12.60;;;9.63;;
2972;SDS011;1496;51.404;7.232;2022-07-21T01:50:14;17.33;;;11.40;;
2972;SDS011;1496;51.404;7.232;2022-07-21T01:52:40;15.33;;;10.97;;
2972;SDS011;1496;51.404;7.232;2022-07-21T01:55:06;14.33;;;10.30;;
2972;SDS011;1496;51.404;7.232;2022-07-21T01:57:32;14.47;;;10.10;;
2972;SDS011;1496;51.404;7.232;2022-07-21T01:59:58;10.80;;;8.63;;
2972;SDS011;1496;51.404;7.232;2022-07-21T02:02:26;16.33;;;9.90;;
2972;SDS011;1496;51.404;7.232;2022-07-21T02:04:52;9.80;;;8.50;;
2972;SDS011;1496;51.404;7.232;2022-07-21T02:07:20;11.40;;;9.03;;
2972;SDS011;1496;51.404;7.232;2022-07-21T02:09:46;16.70;;;7.80;;
2972;SDS011;1496;51.404;7.232;2022-07-21T02:12:13;10.77;;;8.20;;
2972;SDS011;1496;51.404;7.232;2022-07-21T02:14:48;12.23;;;9.40;;
2972;SDS011;1496;51.404;7.232;2022-07-21T02:17:14;15.87;;;9.63;;
2972;SDS011;1496;51.404;7.232;2022-07-21T02:19:40;12.97;;;9.53;;
2972;SDS011;1496;51.404;7.232;2022-07-21T02:22:08;12.10;;;8.87;;
2972;SDS011;1496;51.404;7.232;2022-07-21T02:24:34;13.73;;;9.50;;
2972;SDS011;1496;51.404;7.232;2022-07-21T02:27:05;11.80;;;10.53;;
2972;SDS011;1496;51.404;7.232;2022-07-21T02:29:31;11.70;;;9.53;;
2972;SDS011;1496;51.404;7.232;2022-07-21T02:32:00;14.90;;;9.60;;
2972;SDS011;1496;51.404;7.232;2022-07-21T02:34:26;12.33;;;10.07;;
2972;SDS011;1496;51.404;7.232;2022-07-21T02:36:52;12.73;;;9.40;;
2972;SDS011;1496;51.404;7.232;2022-07-21T02:39:18;12.80;;;9.93;;
2972;SDS011;1496;51.404;7.232;2022-07-21T02:41:45;11.90;;;9.10;;
2972;SDS011;1496;51.404;7.232;2022-07-21T02:44:14;16.70;;;9.03;;
2972;SDS011;1496;51.404;7.232;2022-07-21T02:46:40;11.50;;;9.37;;
2972;SDS011;1496;51.404;7.232;2022-07-21T02:49:19;10.87;;;8.70;;
2972;SDS011;1496;51.404;7.232;2022-07-21T02:51:47;14.20;;;10.00;;
2972;SDS011;1496;51.404;7.232;2022-07-21T02:54:17;12.77;;;9.90;;
2972;SDS011;1496;51.404;7.232;2022-07-21T02:56:43;13.07;;;9.57;;
2972;SDS011;1496;51.404;7.232;2022-07-21T02:59:12;13.63;;;8.53;;
2972;SDS011;1496;51.404;7.232;2022-07-21T03:01:38;13.57;;;9.00;;
2972;SDS011;1496;51.404;7.232;2022-07-21T03:04:10;9.83;;;8.80;;
2972;SDS011;1496;51.404;7.232;2022-07-21T03:06:37;11.50;;;9.13;;
2972;SDS011;1496;51.404;7.232;2022-07-21T03:09:35;14.00;;;8.83;;
2972;SDS011;1496;51.404;7.232;2022-07-21T03:12:01;9.00;;;8.03;;
2972;SDS011;1496;51.404;7.232;2022-07-21T03:14:27;13.23;;;8.60;;
2972;SDS011;1496;51.404;7.232;2022-07-21T03:16:52;11.13;;;9.07;;
2972;SDS011;1496;51.404;7.232;2022-07-21T03:19:18;15.57;;;8.30;;
2972;SDS011;1496;51.404;7.232;2022-07-21T03:21:44;12.73;;;7.90;;
2972;SDS011;1496;51.404;7.232;2022-07-21T03:24:10;10.97;;;8.80;;
2972;SDS011;1496;51.404;7.232;2022-07-21T03:26:35;11.10;;;8.17;;
2972;SDS011;1496;51.404;7.232;2022-07-21T03:29:03;9.47;;;8.43;;
2972;SDS011;1496;51.404;7.232;2022-07-21T03:31:30;10.83;;;8.27;;
2972;SDS011;1496;51.404;7.232;2022-07-21T03:33:56;8.83;;;7.93;;
2972;SDS011;1496;51.404;7.232;2022-07-21T03:36:21;10.23;;;8.33;;
2972;SDS011;1496;51.404;7.232;2022-07-21T03:38:47;9.73;;;8.70;;
2972;SDS011;1496;51.404;7.232;2022-07-21T03:41:14;10.50;;;7.93;;
2972;SDS011;1496;51.404;7.232;2022-07-21T03:43:40;10.50;;;7.93;;
2972;SDS011;1496;51.404;7.232;2022-07-21T03:46:06;11.83;;;7.60;;
2972;SDS011;1496;51.404;7.232;2022-07-21T03:48:31;9.77;;;7.60;;
2972;SDS011;1496;51.404;7.232;2022-07-21T03:51:17;10.20;;;8.13;;
2972;SDS011;1496;51.404;7.232;2022-07-21T03:53:43;9.90;;;7.50;;
2972;SDS011;1496;51.404;7.232;2022-07-21T03:56:09;8.57;;;7.20;;
2972;SDS011;1496;51.404;7.232;2022-07-21T03:58:35;9.80;;;7.53;;
2972;SDS011;1496;51.404;7.232;2022-07-21T04:01:00;13.17;;;8.57;;
2972;SDS011;1496;51.404;7.232;2022-07-21T04:03:26;8.83;;;7.53;;
2972;SDS011;1496;51.404;7.232;2022-07-21T04:05:52;9.50;;;8.57;;
2972;SDS011;1496;51.404;7.232;2022-07-21T04:08:20;10.90;;;8.10;;
2972;SDS011;1496;51.404;7.232;2022-07-21T04:10:46;9.03;;;7.83;;
2972;SDS011;1496;51.404;7.232;2022-07-21T04:13:12;13.67;;;7.83;;
2972;SDS011;1496;51.404;7.232;2022-07-21T04:15:39;11.90;;;7.97;;
2972;SDS011;1496;51.404;7.232;2022-07-21T04:18:05;10.67;;;8.00;;
2972;SDS011;1496;51.404;7.232;2022-07-21T04:20:32;8.10;;;6.83;;
2972;SDS011;1496;51.404;7.232;2022-07-21T04:22:58;10.97;;;8.40;;
2972;SDS011;1496;51.404;7.232;2022-07-21T04:25:27;9.97;;;8.97;;
2972;SDS011;1496;51.404;7.232;2022-07-21T04:27:55;14.60;;;10.80;;
2972;SDS011;1496;51.404;7.232;2022-07-21T04:30:23;12.53;;;10.07;;
2972;SDS011;1496;51.404;7.232;2022-07-21T04:32:51;15.27;;;10.93;;
2972;SDS011;1496;51.404;7.232;2022-07-21T04:35:17;12.57;;;10.30;;
2972;SDS011;1496;51.404;7.232;2022-07-21T04:37:43;14.53;;;11.53;;
2972;SDS011;1496;51.404;7.232;2022-07-21T04:40:11;14.43;;;12.03;;
2972;SDS011;1496;51.404;7.232;2022-07-21T04:42:37;13.73;;;12.23;;
2972;SDS011;1496;51.404;7.232;2022-07-21T04:45:04;13.83;;;12.07;;
2972;SDS011;1496;51.404;7.232;2022-07-21T04:47:31;16.23;;;14.00;;
2972;SDS011;1496;51.404;7.232;2022-07-21T04:49:57;18.43;;;14.33;;
2972;SDS011;1496;51.404;7.232;2022-07-21T04:52:23;17.00;;;14.70;;
2972;SDS011;1496;51.404;7.232;2022-07-21T04:54:48;18.87;;;14.07;;
2972;SDS011;1496;51.404;7.232;2022-07-21T04:57:14;16.03;;;14.43;;
2972;SDS011;1496;51.404;7.232;2022-07-21T04:59:40;15.30;;;13.70;;
2972;SDS011;1496;51.404;7.232;2022-07-21T05:02:06;18.20;;;15.17;;
2972;SDS011;1496;51.404;7.232;2022-07-21T05:04:32;19.63;;;16.63;;
2972;SDS011;1496;51.404;7.232;2022-07-21T05:06:57;17.27;;;15.37;;
2972;SDS011;1496;51.404;7.232;2022-07-21T05:09:23;17.90;;;15.80;;
2972;SDS011;1496;51.404;7.232;2022-07-21T05:11:49;17.43;;;14.73;;
2972;SDS011;1496;51.404;7.232;2022-07-21T05:14:14;26.33;;;16.83;;
2972;SDS011;1496;51.404;7.232;2022-07-21T05:16:40;18.37;;;16.27;;
2972;SDS011;1496;51.404;7.232;2022-07-21T05:19:06;17.77;;;15.73;;
2972;SDS011;1496;51.404;7.232;2022-07-21T05:21:32;21.23;;;17.90;;
2972;SDS011;1496;51.404;7.232;2022-07-21T05:23:58;19.53;;;17.37;;
2972;SDS011;1496;51.404;7.232;2022-07-21T05:26:24;21.20;;;16.83;;
2972;SDS011;1496;51.404;7.232;2022-07-21T05:28:49;19.23;;;16.47;;
2972;SDS011;1496;51.404;7.232;2022-07-21T05:31:15;19.67;;;17.43;;
2972;SDS011;1496;51.404;7.232;2022-07-21T05:33:41;20.00;;;17.90;;
2972;SDS011;1496;51.404;7.232;2022-07-21T05:36:07;27.10;;;19.17;;
2972;SDS011;1496;51.404;7.232;2022-07-21T05:38:32;19.80;;;17.70;;
2972;SDS011;1496;51.404;7.232;2022-07-21T05:40:58;19.67;;;17.57;;
2972;SDS011;1496;51.404;7.232;2022-07-21T05:43:30;20.20;;;18.20;;
2972;SDS011;1496;51.404;7.232;2022-07-21T05:45:56;19.90;;;17.03;;
2972;SDS011;1496;51.404;7.232;2022-07-21T05:48:25;21.70;;;17.13;;
2972;SDS011;1496;51.404;7.232;2022-07-21T05:50:50;24.83;;;18.07;;
2972;SDS011;1496;51.404;7.232;2022-07-21T05:53:16;20.37;;;18.20;;
2972;SDS011;1496;51.404;7.232;2022-07-21T05:55:42;18.60;;;16.70;;
2972;SDS011;1496;51.404;7.232;2022-07-21T05:58:08;21.23;;;19.10;;
2972;SDS011;1496;51.404;7.232;2022-07-21T06:00:34;19.53;;;17.53;;
2972;SDS011;1496;51.404;7.232;2022-07-21T06:03:02;20.60;;;16.80;;
2972;SDS011;1496;51.404;7.232;2022-07-21T06:05:30;18.37;;;16.47;;
2972;SDS011;1496;51.404;7.232;2022-07-21T06:07:55;20.40;;;16.33;;
2972;SDS011;1496;51.404;7.232;2022-07-21T06:10:21;19.50;;;16.60;;
2972;SDS011;1496;51.404;7.232;2022-07-21T06:12:46;16.70;;;15.03;;
2972;SDS011;1496;51.404;7.232;2022-07-21T06:15:12;17.70;;;15.73;;
2972;SDS011;1496;51.404;7.232;2022-07-21T06:17:43;20.40;;;16.77;;
2972;SDS011;1496;51.404;7.232;2022-07-21T06:20:10;17.97;;;15.43;;
2972;SDS011;1496;51.404;7.232;2022-07-21T06:22:38;18.93;;;17.07;;
2972;SDS011;1496;51.404;7.232;2022-07-21T06:25:04;19.53;;;17.43;;
2972;SDS011;1496;51.404;7.232;2022-07-21T06:27:30;19.97;;;17.90;;
2972;SDS011;1496;51.404;7.232;2022-07-21T06:29:59;19.63;;;17.57;;
2972;SDS011;1496;51.404;7.232;2022-07-21T06:32:25;19.77;;;17.83;;
2972;SDS011;1496;51.404;7.232;2022-07-21T06:34:51;26.30;;;18.67;;
2972;SDS011;1496;51.404;7.232;2022-07-21T06:37:16;18.67;;;16.77;;
2972;SDS011;1496;51.404;7.232;2022-07-21T06:39:42;18.83;;;16.90;;
2972;SDS011;1496;51.404;7.232;2022-07-21T06:42:08;19.20;;;17.23;;
2972;SDS011;1496;51.404;7.232;2022-07-21T06:44:35;19.73;;;17.80;;
2972;SDS011;1496;51.404;7.232;2022-07-21T06:47:01;19.23;;;17.33;;
2972;SDS011;1496;51.404;7.232;2022-07-21T06:49:30;20.97;;;18.53;;
2972;SDS011;1496;51.404;7.232;2022-07-21T06:51:56;18.77;;;16.77;;
2972;SDS011;1496;51.404;7.232;2022-07-21T06:54:22;19.27;;;17.37;;
2972;SDS011;1496;51.404;7.232;2022-07-21T06:56:48;20.03;;;17.93;;
2972;SDS011;1496;51.404;7.232;2022-07-21T06:59:14;21.20;;;15.80;;
2972;SDS011;1496;51.404;7.232;2022-07-21T07:01:40;20.27;;;16.43;;
2972;SDS011;1496;51.404;7.232;2022-07-21T07:04:06;19.00;;;17.10;;
2972;SDS011;1496;51.404;7.232;2022-07-21T07:06:32;20.80;;;17.13;;
2972;SDS011;1496;51.404;7.232;2022-07-21T07:08:57;18.17;;;16.27;;
2972;SDS011;1496;51.404;7.232;2022-07-21T07:11:23;17.70;;;15.47;;
2972;SDS011;1496;51.404;7.232;2022-07-21T07:13:49;20.43;;;14.67;;
2972;SDS011;1496;51.404;7.232;2022-07-21T07:16:14;22.33;;;15.87;;
2972;SDS011;1496;51.404;7.232;2022-07-21T07:18:40;17.90;;;16.20;;
2972;SDS011;1496;51.404;7.232;2022-07-21T07:21:06;19.40;;;17.30;;
2972;SDS011;1496;51.404;7.232;2022-07-21T07:23:32;18.07;;;16.13;;
2972;SDS011;1496;51.404;7.232;2022-07-21T07:25:57;17.67;;;15.77;;
2972;SDS011;1496;51.404;7.232;2022-07-21T07:28:23;17.47;;;15.33;;
2972;SDS011;1496;51.404;7.232;2022-07-21T07:30:51;20.90;;;17.17;;
2972;SDS011;1496;51.404;7.232;2022-07-21T07:33:17;18.77;;;16.77;;
2972;SDS011;1496;51.404;7.232;2022-07-21T07:35:43;19.00;;;16.63;;
2972;SDS011;1496;51.404;7.232;2022-07-21T07:38:12;19.30;;;17.10;;
2972;SDS011;1496;51.404;7.232;2022-07-21T07:40:41;19.70;;;17.90;;
2972;SDS011;1496;51.404;7.232;2022-07-21T07:43:07;16.50;;;14.77;;
2972;SDS011;1496;51.404;7.232;2022-07-21T07:45:34;17.80;;;16.03;;
2972;SDS011;1496;51.404;7.232;2022-07-21T07:48:00;16.70;;;14.60;;
2972;SDS011;1496;51.404;7.232;2022-07-21T07:50:26;15.70;;;13.83;;
2972;SDS011;1496;51.404;7.232;2022-07-21T07:52:53;15.30;;;13.80;;
2972;SDS011;1496;51.404;7.232;2022-07-21T07:55:19;16.00;;;13.03;;
2972;SDS011;1496;51.404;7.232;2022-07-21T07:57:45;16.63;;;13.60;;
2972;SDS011;1496;51.404;7.232;2022-07-21T08:00:12;13.93;;;12.50;;
2972;SDS011;1496;51.404;7.232;2022-07-21T08:02:43;14.30;;;12.83;;
2972;SDS011;1496;51.404;7.232;2022-07-21T08:05:10;13.93;;;11.33;;
2972;SDS011;1496;51.404;7.232;2022-07-21T08:07:37;12.80;;;11.27;;
2972;SDS011;1496;51.404;7.232;2022-07-21T08:10:07;14.07;;;12.77;;
2972;SDS011;1496;51.404;7.232;2022-07-21T08:12:34;13.03;;;11.73;;
2972;SDS011;1496;51.404;7.232;2022-07-21T08:15:01;14.13;;;12.83;;
2972;SDS011;1496;51.404;7.232;2022-07-21T08:17:27;14.37;;;12.83;;
2972;SDS011;1496;51.404;7.232;2022-07-21T08:19:53;13.80;;;12.40;;
2972;SDS011;1496;51.404;7.232;2022-07-21T08:22:19;13.93;;;12.53;;
2972;SDS011;1496;51.404;7.232;2022-07-21T08:24:44;14.23;;;11.30;;
2972;SDS011;1496;51.404;7.232;2022-07-21T08:27:10;13.40;;;11.10;;
2972;SDS011;1496;51.404;7.232;2022-07-21T08:29:36;13.27;;;10.10;;
2972;SDS011;1496;51.404;7.232;2022-07-21T08:32:02;11.50;;;9.70;;
2972;SDS011;1496;51.404;7.232;2022-07-21T08:34:28;11.60;;;9.03;;
2972;SDS011;1496;51.404;7.232;2022-07-21T08:36:53;12.80;;;9.77;;
2972;SDS011;1496;51.404;7.232;2022-07-21T08:39:19;13.73;;;10.47;;
2972;SDS011;1496;51.404;7.232;2022-07-21T08:41:45;11.63;;;10.43;;
2972;SDS011;1496;51.404;7.232;2022-07-21T08:44:11;11.70;;;10.13;;
2972;SDS011;1496;51.404;7.232;2022-07-21T08:46:38;10.93;;;9.93;;
2972;SDS011;1496;51.404;7.232;2022-07-21T08:49:06;12.20;;;9.00;;
2972;SDS011;1496;51.404;7.232;2022-07-21T08:51:35;11.80;;;10.07;;
2972;SDS011;1496;51.404;7.232;2022-07-21T08:54:01;12.20;;;8.57;;
2972;SDS011;1496;51.404;7.232;2022-07-21T08:56:28;12.70;;;8.57;;
2972;SDS011;1496;51.404;7.232;2022-07-21T08:58:57;11.43;;;9.73;;
2972;SDS011;1496;51.404;7.232;2022-07-21T09:01:22;11.70;;;9.20;;
2972;SDS011;1496;51.404;7.232;2022-07-21T09:03:49;13.67;;;10.27;;
2972;SDS011;1496;51.404;7.232;2022-07-21T09:06:19;14.63;;;8.83;;
2972;SDS011;1496;51.404;7.232;2022-07-21T09:08:51;17.83;;;10.80;;
2972;SDS011;1496;51.404;7.232;2022-07-21T09:11:23;16.77;;;9.33;;
2972;SDS011;1496;51.404;7.232;2022-07-21T09:16:32;17.03;;;10.20;;
2972;SDS011;1496;51.404;7.232;2022-07-21T09:19:06;18.63;;;10.53;;
2972;SDS011;1496;51.404;7.232;2022-07-21T09:21:39;15.80;;;9.27;;
2972;SDS011;1496;51.404;7.232;2022-07-21T09:29:24;14.03;;;9.43;;
2972;SDS011;1496;51.404;7.232;2022-07-21T09:31:51;17.30;;;9.30;;
2972;SDS011;1496;51.404;7.232;2022-07-21T09:34:17;18.77;;;9.43;;
2972;SDS011;1496;51.404;7.232;2022-07-21T09:36:55;22.43;;;8.50;;
2972;SDS011;1496;51.404;7.232;2022-07-21T09:39:39;20.67;;;8.90;;
2972;SDS011;1496;51.404;7.232;2022-07-21T09:42:31;26.30;;;8.90;;
2972;SDS011;1496;51.404;7.232;2022-07-21T09:45:04;17.20;;;8.97;;
2972;SDS011;1496;51.404;7.232;2022-07-21T09:47:33;22.27;;;9.33;;
2972;SDS011;1496;51.404;7.232;2022-07-21T09:49:59;30.33;;;9.00;;
2972;SDS011;1496;51.404;7.232;2022-07-21T09:52:36;26.53;;;8.87;;
2972;SDS011;1496;51.404;7.232;2022-07-21T09:57:30;18.27;;;8.00;;
2972;SDS011;1496;51.404;7.232;2022-07-21T09:59:57;20.20;;;8.33;;
2972;SDS011;1496;51.404;7.232;2022-07-21T10:02:27;24.20;;;8.90;;
2972;SDS011;1496;51.404;7.232;2022-07-21T10:04:58;20.60;;;9.57;;
2972;SDS011;1496;51.404;7.232;2022-07-21T10:07:27;29.40;;;8.97;;
2972;SDS011;1496;51.404;7.232;2022-07-21T10:09:54;31.43;;;8.50;;
2972;SDS011;1496;51.404;7.232;2022-07-21T10:12:21;27.97;;;8.33;;
2972;SDS011;1496;51.404;7.232;2022-07-21T10:14:51;29.93;;;8.53;;
2972;SDS011;1496;51.404;7.232;2022-07-21T10:17:17;26.30;;;7.97;;
2972;SDS011;1496;51.404;7.232;2022-07-21T10:25:39;30.30;;;8.63;;
2972;SDS011;1496;51.404;7.232;2022-07-21T10:33:13;26.00;;;8.40;;
2972;SDS011;1496;51.404;7.232;2022-07-21T10:35:43;28.37;;;8.07;;
2972;SDS011;1496;51.404;7.232;2022-07-21T10:38:27;23.60;;;8.43;;
2972;SDS011;1496;51.404;7.232;2022-07-21T10:40:55;24.77;;;9.00;;
2972;SDS011;1496;51.404;7.232;2022-07-21T10:45:50;25.90;;;7.83;;
2972;SDS011;1496;51.404;7.232;2022-07-21T10:51:02;21.30;;;8.33;;
2972;SDS011;1496;51.404;7.232;2022-07-21T10:53:35;17.00;;;6.40;;
2972;SDS011;1496;51.404;7.232;2022-07-21T10:56:02;18.90;;;7.70;;
2972;SDS011;1496;51.404;7.232;2022-07-21T10:58:29;18.97;;;7.27;;
2972;SDS011;1496;51.404;7.232;2022-07-21T11:01:08;21.23;;;7.23;;
2972;SDS011;1496;51.404;7.232;2022-07-21T11:04:06;21.73;;;8.17;;
2972;SDS011;1496;51.404;7.232;2022-07-21T11:06:34;25.87;;;8.03;;
2972;SDS011;1496;51.404;7.232;2022-07-21T11:11:27;25.57;;;8.93;;
2972;SDS011;1496;51.404;7.232;2022-07-21T11:13:59;29.60;;;8.73;;
2972;SDS011;1496;51.404;7.232;2022-07-21T11:17:08;36.13;;;8.80;;
2972;SDS011;1496;51.404;7.232;2022-07-21T11:22:09;33.30;;;9.10;;
2972;SDS011;1496;51.404;7.232;2022-07-21T11:27:24;30.40;;;8.63;;
2972;SDS011;1496;51.404;7.232;2022-07-21T11:29:55;32.13;;;9.43;;
2972;SDS011;1496;51.404;7.232;2022-07-21T11:32:23;28.63;;;10.00;;
2972;SDS011;1496;51.404;7.232;2022-07-21T11:34:51;25.90;;;8.77;;
2972;SDS011;1496;51.404;7.232;2022-07-21T11:37:28;30.00;;;10.03;;
2972;SDS011;1496;51.404;7.232;2022-07-21T11:39:54;19.70;;;9.67;;
2972;SDS011;1496;51.404;7.232;2022-07-21T11:42:20;23.23;;;10.37;;
2972;SDS011;1496;51.404;7.232;2022-07-21T11:44:47;17.50;;;10.10;;
2972;SDS011;1496;51.404;7.232;2022-07-21T11:47:15;13.63;;;10.10;;
2972;SDS011;1496;51.404;7.232;2022-07-21T11:49:41;17.67;;;10.47;;
2972;SDS011;1496;51.404;7.232;2022-07-21T11:52:15;14.03;;;9.83;;
2972;SDS011;1496;51.404;7.232;2022-07-21T11:54:43;13.60;;;10.70;;
2972;SDS011;1496;51.404;7.232;2022-07-21T11:57:12;13.90;;;11.90;;
2972;SDS011;1496;51.404;7.232;2022-07-21T11:59:39;14.70;;;10.73;;
2972;SDS011;1496;51.404;7.232;2022-07-21T12:02:14;12.60;;;10.70;;
2972;SDS011;1496;51.404;7.232;2022-07-21T12:04:44;17.13;;;11.53;;
2972;SDS011;1496;51.404;7.232;2022-07-21T12:09:41;12.03;;;10.67;;
2972;SDS011;1496;51.404;7.232;2022-07-21T12:12:08;12.00;;;10.80;;
2972;SDS011;1496;51.404;7.232;2022-07-21T12:14:41;13.73;;;10.50;;
2972;SDS011;1496;51.404;7.232;2022-07-21T12:17:15;12.17;;;10.20;;
2972;SDS011;1496;51.404;7.232;2022-07-21T12:19:42;12.00;;;9.80;;
2972;SDS011;1496;51.404;7.232;2022-07-21T12:22:08;15.30;;;10.50;;
2972;SDS011;1496;51.404;7.232;2022-07-21T12:25:07;14.10;;;10.13;;
2972;SDS011;1496;51.404;7.232;2022-07-21T12:27:26;10.83;;;9.57;;
2972;SDS011;1496;51.404;7.232;2022-07-21T12:29:52;9.83;;;8.90;;
2972;SDS011;1496;51.404;7.232;2022-07-21T12:32:37;9.13;;;8.23;;
2972;SDS011;1496;51.404;7.232;2022-07-21T12:35:04;9.80;;;8.80;;
2972;SDS011;1496;51.404;7.232;2022-07-21T12:40:26;7.27;;;6.63;;
2972;SDS011;1496;51.404;7.232;2022-07-21T12:43:07;7.60;;;6.70;;
2972;SDS011;1496;51.404;7.232;2022-07-21T12:45:47;7.77;;;6.97;;
2972;SDS011;1496;51.404;7.232;2022-07-21T12:48:17;9.13;;;7.40;;
2972;SDS011;1496;51.404;7.232;2022-07-21T12:53:37;9.80;;;8.90;;
2972;SDS011;1496;51.404;7.232;2022-07-21T12:56:08;9.40;;;8.40;;
2972;SDS011;1496;51.404;7.232;2022-07-21T12:58:35;9.03;;;8.17;;
2972;SDS011;1496;51.404;7.232;2022-07-21T13:01:01;9.33;;;8.40;;
2972;SDS011;1496;51.404;7.232;2022-07-21T13:03:31;8.37;;;7.60;;
2972;SDS011;1496;51.404;7.232;2022-07-21T13:05:58;8.23;;;7.43;;
2972;SDS011;1496;51.404;7.232;2022-07-21T13:08:25;8.33;;;7.63;;
2972;SDS011;1496;51.404;7.232;2022-07-21T13:10:51;9.60;;;8.30;;
2972;SDS011;1496;51.404;7.232;2022-07-21T13:13:16;7.27;;;6.67;;
2972;SDS011;1496;51.404;7.232;2022-07-21T13:15:45;9.70;;;7.40;;
2972;SDS011;1496;51.404;7.232;2022-07-21T13:18:11;8.53;;;7.57;;
2972;SDS011;1496;51.404;7.232;2022-07-21T13:20:37;7.80;;;7.10;;
2972;SDS011;1496;51.404;7.232;2022-07-21T13:23:05;8.60;;;7.80;;
2972;SDS011;1496;51.404;7.232;2022-07-21T13:25:31;7.80;;;7.03;;
2972;SDS011;1496;51.404;7.232;2022-07-21T13:27:57;6.53;;;4.57;;
2972;SDS011;1496;51.404;7.232;2022-07-21T13:30:22;5.23;;;3.83;;
2972;SDS011;1496;51.404;7.232;2022-07-21T13:32:50;4.83;;;3.80;;
2972;SDS011;1496;51.404;7.232;2022-07-21T13:35:16;4.03;;;3.73;;
2972;SDS011;1496;51.404;7.232;2022-07-21T13:37:42;4.33;;;3.50;;
2972;SDS011;1496;51.404;7.232;2022-07-21T13:40:08;4.10;;;3.70;;
2972;SDS011;1496;51.404;7.232;2022-07-21T13:42:34;5.20;;;3.57;;
2972;SDS011;1496;51.404;7.232;2022-07-21T13:45:00;3.53;;;3.23;;
2972;SDS011;1496;51.404;7.232;2022-07-21T13:47:25;3.67;;;3.30;;
2972;SDS011;1496;51.404;7.232;2022-07-21T13:49:51;3.30;;;3.00;;
2972;SDS011;1496;51.404;7.232;2022-07-21T13:52:17;4.23;;;3.83;;
2972;SDS011;1496;51.404;7.232;2022-07-21T13:54:43;4.83;;;3.80;;
2972;SDS011;1496;51.404;7.232;2022-07-21T13:57:09;4.20;;;3.40;;
2972;SDS011;1496;51.404;7.232;2022-07-21T13:59:34;4.67;;;4.27;;
2972;SDS011;1496;51.404;7.232;2022-07-21T14:02:00;6.43;;;5.23;;
2972;SDS011;1496;51.404;7.232;2022-07-21T14:04:26;8.73;;;4.60;;
2972;SDS011;1496;51.404;7.232;2022-07-21T14:06:54;6.43;;;5.63;;
2972;SDS011;1496;51.404;7.232;2022-07-21T14:09:20;6.93;;;6.33;;
2972;SDS011;1496;51.404;7.232;2022-07-21T14:11:48;8.73;;;7.77;;
2972;SDS011;1496;51.404;7.232;2022-07-21T14:14:14;9.47;;;8.57;;
2972;SDS011;1496;51.404;7.232;2022-07-21T14:16:46;10.60;;;8.83;;
2972;SDS011;1496;51.404;7.232;2022-07-21T14:19:12;9.57;;;8.60;;
2972;SDS011;1496;51.404;7.232;2022-07-21T14:21:39;13.83;;;10.73;;
2972;SDS011;1496;51.404;7.232;2022-07-21T14:24:04;10.87;;;9.73;;
2972;SDS011;1496;51.404;7.232;2022-07-21T14:26:49;10.70;;;9.60;;
2972;SDS011;1496;51.404;7.232;2022-07-21T14:29:15;12.90;;;11.03;;
2972;SDS011;1496;51.404;7.232;2022-07-21T14:31:40;11.03;;;9.33;;
2972;SDS011;1496;51.404;7.232;2022-07-21T14:34:09;14.83;;;9.60;;
2972;SDS011;1496;51.404;7.232;2022-07-21T14:36:38;15.73;;;10.47;;
2972;SDS011;1496;51.404;7.232;2022-07-21T14:39:06;10.77;;;9.40;;
2972;SDS011;1496;51.404;7.232;2022-07-21T14:41:32;9.83;;;8.83;;
2972;SDS011;1496;51.404;7.232;2022-07-21T14:43:58;9.67;;;7.47;;
2972;SDS011;1496;51.404;7.232;2022-07-21T14:46:41;8.97;;;7.27;;
2972;SDS011;1496;51.404;7.232;2022-07-21T14:50:01;6.80;;;5.77;;
2972;SDS011;1496;51.404;7.232;2022-07-21T14:52:33;7.30;;;6.50;;
2972;SDS011;1496;51.404;7.232;2022-07-21T14:54:59;6.67;;;6.07;;
2972;SDS011;1496;51.404;7.232;2022-07-21T14:57:25;6.43;;;5.83;;
2972;SDS011;1496;51.404;7.232;2022-07-21T14:59:51;5.50;;;5.00;;
2972;SDS011;1496;51.404;7.232;2022-07-21T15:02:16;5.60;;;4.90;;
2972;SDS011;1496;51.404;7.232;2022-07-21T15:04:42;5.97;;;5.37;;
2972;SDS011;1496;51.404;7.232;2022-07-21T15:07:08;6.27;;;5.63;;
2972;SDS011;1496;51.404;7.232;2022-07-21T15:09:34;6.80;;;5.80;;
2972;SDS011;1496;51.404;7.232;2022-07-21T15:12:00;6.80;;;5.90;;
2972;SDS011;1496;51.404;7.232;2022-07-21T15:14:26;11.73;;;6.83;;
2972;SDS011;1496;51.404;7.232;2022-07-21T15:16:52;9.80;;;7.70;;
2972;SDS011;1496;51.404;7.232;2022-07-21T15:19:19;8.47;;;5.80;;
2972;SDS011;1496;51.404;7.232;2022-07-21T15:21:45;9.70;;;6.87;;
2972;SDS011;1496;51.404;7.232;2022-07-21T15:24:11;7.70;;;7.00;;
2972;SDS011;1496;51.404;7.232;2022-07-21T15:26:36;8.53;;;7.50;;
2972;SDS011;1496;51.404;7.232;2022-07-21T15:29:02;9.43;;;8.53;;
2972;SDS011;1496;51.404;7.232;2022-07-21T15:31:31;10.47;;;9.37;;
2972;SDS011;1496;51.404;7.232;2022-07-21T15:33:57;12.37;;;11.07;;
2972;SDS011;1496;51.404;7.232;2022-07-21T15:36:24;13.20;;;12.10;;
2972;SDS011;1496;51.404;7.232;2022-07-21T15:38:49;13.70;;;12.40;;
2972;SDS011;1496;51.404;7.232;2022-07-21T15:41:15;13.13;;;11.83;;
2972;SDS011;1496;51.404;7.232;2022-07-21T15:43:42;11.33;;;10.23;;